Time;durP1;ratioP1;P1;durP2;ratioP2;P2;SDS_P1;SDS_P2;PMS_P1;PMS_P2;Temp;Humidity;BMP_temperature;BMP_pressure;BME280_temperature;BME280_humidity;BME280_pressure;Samples;Min_cycle;Max_cycle;Signal;HPM_P1;HPM_P2
2021/01/20 00:01:46;;;;;;;;;;;;;;;1.66;78.01;97566.62;1741423;81;24658;-88
2021/01/20 00:04:32;;;;;;;;;;;;;;;1.67;78.01;97564.88;1744976;80;22248;-89
2021/01/20 00:07:06;;;;;;;;;;;;;;;1.70;78.04;97568.59;1786527;79;26183;-89
2021/01/20 00:09:57;;;;;;;;;;;;;;;1.71;78.06;97568.97;1740068;82;24734;-89
2021/01/20 00:12:45;;;;;;;;;;;;;;;1.74;78.09;97568.01;1790193;79;20374;-89
2021/01/20 00:15:19;;;;;;;;;;;;;;;1.76;78.09;97573.91;1742651;81;24738;-89
2021/01/20 00:18:05;;;;;;;;;;;;;;;1.80;78.13;97572.39;1741862;81;22231;-90
2021/01/20 00:20:53;;;;;;;;;;;;;;;1.83;78.13;97577.87;1723378;82;26253;-88
2021/01/20 00:23:40;;;;;;;;;;;;;;;1.86;78.17;97584.16;1790144;79;24610;-89
2021/01/20 00:26:26;;;;;;;;;;;;;;;1.88;78.20;97580.61;1743855;81;20264;-89
2021/01/20 00:29:06;;;;;;;;;;;;;;;1.93;78.23;97585.53;1713290;82;25601;-89
2021/01/20 00:31:42;;;;;;;;;;;;;;;1.95;78.25;97581.14;1741661;81;23020;-89
2021/01/20 00:34:35;;;;;;;;;;;;;;;1.98;78.28;97576.66;1790638;79;26131;-88
2021/01/20 00:37:22;;;;;;;;;;;;;;;2.01;78.29;97575.23;1745431;81;24645;-89
2021/01/20 00:40:10;;;;;;;;;;;;;;;2.03;78.34;97580.30;1713337;81;20355;-88
2021/01/20 00:42:58;;;;;;;;;;;;;;;2.03;78.35;97581.13;1727433;82;24758;-88
2021/01/20 00:45:49;;;;;;;;;;;;;;;2.02;78.37;97583.33;1792623;79;22149;-88
2021/01/20 00:48:35;;;;;;;;;;;;;;;2.05;78.40;97587.06;1789601;79;26120;-88
2021/01/20 00:51:22;;;;;;;;;;;;;;;2.04;78.39;97581.52;1767415;79;24592;-88
2021/01/20 00:54:08;;;;;;;;;;;;;;;2.06;78.44;97583.58;1794386;79;20269;-89
2021/01/20 00:56:53;;;;;;;;;;;;;;;2.08;78.45;97589.48;1794696;79;24763;-88
2021/01/20 00:59:39;;;;;;;;;;;;;;;2.09;78.48;97582.58;1736967;81;22136;-89
2021/01/20 01:02:25;;;;;;;;;;;;;;;2.10;78.50;97581.67;1726681;82;26214;-88
2021/01/20 01:05:11;;;;;;;;;;;;;;;2.12;78.51;97584.19;1728136;82;24693;-88
2021/01/20 01:07:59;;;;;;;;;;;;;;;2.13;78.56;97584.57;1698088;84;20560;-88
2021/01/20 01:10:45;;;;;;;;;;;;;;;2.14;78.57;97586.22;1720211;83;24736;-89
2021/01/20 01:13:32;;;;;;;;;;;;;;;2.15;78.58;97587.44;1719079;82;23761;-89
2021/01/20 01:16:18;;;;;;;;;;;;;;;2.17;78.62;97588.66;1698830;84;27200;-88
2021/01/20 01:19:07;;;;;;;;;;;;;;;2.16;78.64;97588.28;1760417;81;25560;-88
2021/01/20 01:21:53;;;;;;;;;;;;;;;2.16;78.67;97581.83;1726473;82;20645;-88
2021/01/20 01:24:39;;;;;;;;;;;;;;;2.17;78.68;97579.63;1727292;82;24644;-88
2021/01/20 01:27:26;;;;;;;;;;;;;;;2.17;78.72;97584.34;1764576;80;23015;-89
2021/01/20 01:30:11;;;;;;;;;;;;;;;2.19;78.72;97583.78;1757161;81;26190;-89
2021/01/20 01:32:58;;;;;;;;;;;;;;;2.21;78.75;97585.01;1756330;81;24477;-88
2021/01/20 01:35:46;;;;;;;;;;;;;;;2.24;78.79;97584.84;1726672;82;20275;-88
2021/01/20 01:38:32;;;;;;;;;;;;;;;2.23;78.80;97591.78;1755826;81;25576;-88
2021/01/20 01:41:18;;;;;;;;;;;;;;;2.25;78.83;97591.68;1752218;81;22154;-88
2021/01/20 01:44:06;;;;;;;;;;;;;;;2.26;78.86;97597.23;1725487;82;26226;-88
2021/01/20 01:46:40;;;;;;;;;;;;;;;2.25;78.88;97587.36;1723060;82;24635;-88
2021/01/20 01:49:28;;;;;;;;;;;;;;;2.28;78.87;97585.09;1700472;84;20372;-88
2021/01/20 01:52:14;;;;;;;;;;;;;;;2.31;78.92;97591.38;1707570;83;25609;-87
2021/01/20 01:55:01;;;;;;;;;;;;;;;2.34;78.94;97588.20;1751599;81;22178;-88
2021/01/20 01:57:48;;;;;;;;;;;;;;;2.34;78.96;97589.95;1754098;81;27170;-86
2021/01/20 02:00:35;;;;;;;;;;;;;;;2.33;78.99;97600.73;1758722;79;24470;-87
2021/01/20 02:03:22;;;;;;;;;;;;;;;2.34;79.01;97594.66;1769481;81;20463;-87
2021/01/20 02:06:07;;;;;;;;;;;;;;;2.38;79.02;97597.91;1766135;81;24657;-87
2021/01/20 02:08:54;;;;;;;;;;;;;;;2.40;79.04;97593.52;1767167;81;21431;-87
2021/01/20 02:11:40;;;;;;;;;;;;;;;2.43;79.05;97590.77;1764702;81;27012;-87
2021/01/20 02:14:28;;;;;;;;;;;;;;;2.43;79.08;97595.47;1765561;81;24760;-87
2021/01/20 02:17:15;;;;;;;;;;;;;;;2.47;79.08;97601.31;1768902;81;20346;-90
2021/01/20 02:20:01;;;;;;;;;;;;;;;2.46;79.12;97599.63;1766083;81;24559;-90
2021/01/20 02:22:47;;;;;;;;;;;;;;;2.48;79.13;97593.48;1766557;81;22148;-90
2021/01/20 02:25:33;;;;;;;;;;;;;;;2.49;79.16;97597.75;1769131;81;26179;-91
2021/01/20 02:28:18;;;;;;;;;;;;;;;2.50;79.18;97600.72;1766046;81;24626;-91
2021/01/20 02:31:08;;;;;;;;;;;;;;;2.50;79.20;97596.00;1766652;81;20443;-91
2021/01/20 02:33:53;;;;;;;;;;;;;;;2.49;79.23;97602.91;1729788;82;24659;-91
2021/01/20 02:36:41;;;;;;;;;;;;;;;2.49;79.26;97598.20;1730383;82;22313;-91
2021/01/20 02:39:27;;;;;;;;;;;;;;;2.49;79.27;97599.49;1733137;82;26255;-92
2021/01/20 02:42:13;;;;;;;;;;;;;;;2.50;79.28;97605.04;1729977;82;25437;-92
2021/01/20 02:44:59;;;;;;;;;;;;;;;2.50;79.31;97604.59;1711629;81;20413;-91
2021/01/20 02:47:45;;;;;;;;;;;;;;;2.52;79.35;97603.20;1715258;83;24691;-92
2021/01/20 02:50:31;;;;;;;;;;;;;;;2.53;79.36;97606.16;1712814;83;23164;-92
2021/01/20 02:53:17;;;;;;;;;;;;;;;2.55;79.37;97602.22;1702695;84;26234;-92
2021/01/20 02:56:03;;;;;;;;;;;;;;;2.58;79.40;97600.76;1762496;81;24915;-91
2021/01/20 02:58:50;;;;;;;;;;;;;;;2.57;79.42;97601.66;1766530;81;20452;-92
2021/01/20 03:01:36;;;;;;;;;;;;;;;2.58;79.46;97591.72;1767697;81;24695;-92
2021/01/20 03:04:24;;;;;;;;;;;;;;;2.60;79.45;97592.48;1734232;82;22155;-92
2021/01/20 03:07:09;;;;;;;;;;;;;;;2.61;79.47;97589.83;1771473;81;26105;-92
2021/01/20 03:09:55;;;;;;;;;;;;;;;2.63;79.51;97584.56;1769171;81;24577;-92
2021/01/20 03:12:41;;;;;;;;;;;;;;;2.63;79.52;97585.86;1762339;81;20274;-92
2021/01/20 03:15:28;;;;;;;;;;;;;;;2.66;79.52;97587.84;1769990;81;24745;-92
2021/01/20 03:18:14;;;;;;;;;;;;;;;2.68;79.55;97586.00;1732560;82;22333;-92
2021/01/20 03:21:02;;;;;;;;;;;;;;;2.71;79.56;97596.64;1732493;82;26113;-92
2021/01/20 03:23:48;;;;;;;;;;;;;;;2.75;79.58;97597.69;1733090;82;25774;-88
2021/01/20 03:26:39;;;;;;;;;;;;;;;2.76;79.61;97598.53;1731358;82;20748;-89
2021/01/20 03:29:26;;;;;;;;;;;;;;;2.79;79.61;97597.06;1771176;81;24640;-88
2021/01/20 03:32:13;;;;;;;;;;;;;;;2.79;79.63;97602.23;1767986;81;23183;-89
2021/01/20 03:34:59;;;;;;;;;;;;;;;2.81;79.63;97597.38;1767201;81;26321;-88
2021/01/20 03:37:48;;;;;;;;;;;;;;;2.84;79.66;97601.08;1772823;81;24620;-88
2021/01/20 03:40:36;;;;;;;;;;;;;;;2.87;79.66;97592.34;1748270;81;20256;-88
2021/01/20 03:43:22;;;;;;;;;;;;;;;2.87;79.67;97595.77;1764754;81;24702;-88
2021/01/20 03:46:08;;;;;;;;;;;;;;;2.86;79.70;97598.42;1771435;81;22095;-91
2021/01/20 03:48:54;;;;;;;;;;;;;;;2.85;79.70;97601.46;1768810;80;26122;-90
2021/01/20 03:51:40;;;;;;;;;;;;;;;2.85;79.71;97603.20;1761656;81;24804;-90
2021/01/20 03:54:20;;;;;;;;;;;;;;;2.84;79.69;97596.36;1764159;81;20505;-90
2021/01/20 03:57:12;;;;;;;;;;;;;;;2.82;79.69;97595.17;1772210;81;24695;-90
2021/01/20 04:00:04;;;;;;;;;;;;;;;2.83;79.67;97600.73;1720248;82;23072;-90
2021/01/20 04:05:22;;;;;;;;;;;;;;;2.86;79.67;97608.30;1749067;80;24689;-90
2021/01/20 04:07:56;;;;;;;;;;;;;;;2.87;79.67;97607.39;1760716;80;20276;-90
2021/01/20 04:10:46;;;;;;;;;;;;;;;2.88;79.67;97603.91;1754198;80;24754;-90
2021/01/20 04:16:10;;;;;;;;;;;;;;;2.88;79.68;97611.66;1733223;82;26105;-91
2021/01/20 04:18:53;;;;;;;;;;;;;;;2.87;79.67;97610.44;1761652;80;24659;-92
2021/01/20 04:21:45;;;;;;;;;;;;;;;2.88;79.68;97607.78;1776556;80;20285;-91
2021/01/20 04:24:34;;;;;;;;;;;;;;;2.87;79.66;97613.02;1773337;80;24648;-90
2021/01/20 04:27:38;;;;;;;;;;;;;;;2.86;79.66;97616.52;1766984;80;22163;-91
2021/01/20 04:30:24;;;;;;;;;;;;;;;2.89;79.66;97624.12;1752210;80;26130;-91
2021/01/20 04:33:07;;;;;;;;;;;;;;;2.90;79.64;97625.77;1759552;80;24566;-90
2021/01/20 04:35:56;;;;;;;;;;;;;;;2.92;79.65;97623.95;1755196;80;20313;-91
2021/01/20 04:38:45;;;;;;;;;;;;;;;2.93;79.64;97615.28;1756930;80;25631;-91
2021/01/20 04:41:31;;;;;;;;;;;;;;;2.98;79.65;97617.63;1757360;80;23027;-90
2021/01/20 04:44:19;;;;;;;;;;;;;;;2.99;79.65;97627.89;1729768;82;27043;-90
2021/01/20 04:47:05;;;;;;;;;;;;;;;3.00;79.65;97624.84;1726503;82;25467;-90
2021/01/20 04:49:51;;;;;;;;;;;;;;;3.03;79.67;97625.97;1708011;83;20528;-90
2021/01/20 04:55:26;;;;;;;;;;;;;;;3.01;79.67;97622.16;1752405;80;22099;-90
2021/01/20 05:01:02;;;;;;;;;;;;;;;3.04;79.66;97631.06;1768616;79;25601;-90
2021/01/20 05:03:52;;;;;;;;;;;;;;;3.07;79.64;97633.47;1793768;79;20264;-92
2021/01/20 05:06:38;;;;;;;;;;;;;;;3.06;79.65;97635.67;1789066;79;24779;-91
2021/01/20 05:09:24;;;;;;;;;;;;;;;3.06;79.64;97631.80;1789072;79;22092;-91
2021/01/20 05:12:10;;;;;;;;;;;;;;;3.06;79.65;97627.08;1789766;79;26217;-88
2021/01/20 05:14:58;;;;;;;;;;;;;;;3.03;79.65;97628.09;1787308;79;24676;-91
2021/01/20 05:17:44;;;;;;;;;;;;;;;3.02;79.66;97610.91;1746436;81;20281;-91
2021/01/20 05:20:30;;;;;;;;;;;;;;;3.05;79.62;97617.23;1737909;81;24694;-91
2021/01/20 05:23:16;;;;;;;;;;;;;;;3.06;79.63;97614.16;1789535;79;22167;-91
2021/01/20 05:26:02;;;;;;;;;;;;;;;3.05;79.62;97609.93;1788567;79;26091;-91
2021/01/20 05:28:37;;;;;;;;;;;;;;;3.06;79.62;97616.29;1783396;79;24635;-91
2021/01/20 05:31:25;;;;;;;;;;;;;;;3.04;79.60;97618.59;1791693;79;20589;-90
2021/01/20 05:34:15;;;;;;;;;;;;;;;3.04;79.59;97623.77;1795914;79;25490;-90
2021/01/20 05:37:02;;;;;;;;;;;;;;;3.06;79.60;97629.67;1781851;79;22429;-91
2021/01/20 05:39:49;;;;;;;;;;;;;;;3.06;79.61;97632.25;1793409;79;22960;-90
2021/01/20 05:42:36;;;;;;;;;;;;;;;3.01;79.60;97630.37;1792774;79;25599;-90
2021/01/20 05:45:22;;;;;;;;;;;;;;;2.97;79.58;97627.12;1790697;79;20170;-91
2021/01/20 05:48:10;;;;;;;;;;;;;;;2.95;79.60;97632.36;1787974;79;24701;-90
2021/01/20 05:50:57;;;;;;;;;;;;;;;2.93;79.56;97638.09;1742274;81;20196;-90
2021/01/20 05:53:43;;;;;;;;;;;;;;;2.92;79.57;97648.04;1712072;82;26285;-91
2021/01/20 05:56:30;;;;;;;;;;;;;;;2.92;79.55;97642.88;1792352;79;24633;-91
2021/01/20 05:59:16;;;;;;;;;;;;;;;2.94;79.53;97650.55;1788375;79;20266;-91
2021/01/20 06:02:01;;;;;;;;;;;;;;;2.97;79.53;97653.42;1746231;80;25578;-90
2021/01/20 06:04:48;;;;;;;;;;;;;;;2.98;79.53;97656.39;1743097;81;22207;-90
2021/01/20 06:07:36;;;;;;;;;;;;;;;2.99;79.54;97645.98;1711567;82;26335;-90
2021/01/20 06:10:22;;;;;;;;;;;;;;;2.99;79.54;97654.19;1731024;82;24751;-90
2021/01/20 06:13:11;;;;;;;;;;;;;;;2.97;79.54;97642.62;1733129;82;20331;-90
2021/01/20 06:15:59;;;;;;;;;;;;;;;2.99;79.54;97649.02;1733280;82;24671;-90
2021/01/20 06:18:46;;;;;;;;;;;;;;;3.00;79.55;97650.70;1739984;80;22157;-91
2021/01/20 06:21:32;;;;;;;;;;;;;;;2.97;79.56;97665.05;1731060;82;26931;-90
2021/01/20 06:24:18;;;;;;;;;;;;;;;2.95;79.55;97663.38;1728136;81;24584;-89
2021/01/20 06:27:04;;;;;;;;;;;;;;;2.93;79.53;97676.02;1740817;82;20270;-89
2021/01/20 06:29:49;;;;;;;;;;;;;;;2.93;79.53;97687.64;1745220;81;24658;-89
2021/01/20 06:32:37;;;;;;;;;;;;;;;2.92;79.52;97689.39;1735065;81;22148;-89
2021/01/20 06:35:27;;;;;;;;;;;;;;;2.93;79.52;97696.23;1721964;82;26198;-89
2021/01/20 06:38:12;;;;;;;;;;;;;;;2.91;79.52;97694.17;1740782;82;24697;-89
2021/01/20 06:40:58;;;;;;;;;;;;;;;2.91;79.50;97692.04;1718890;82;20282;-89
2021/01/20 06:43:43;;;;;;;;;;;;;;;2.91;79.51;97687.70;1751248;81;24655;-90
2021/01/20 06:46:29;;;;;;;;;;;;;;;2.87;79.51;97683.63;1708603;83;22090;-90
2021/01/20 06:49:16;;;;;;;;;;;;;;;2.90;79.51;97682.61;1712185;82;25660;-89
2021/01/20 06:51:51;;;;;;;;;;;;;;;2.90;79.48;97687.33;1725586;82;25600;-91
2021/01/20 06:54:40;;;;;;;;;;;;;;;2.91;79.51;97695.46;1731805;82;20263;-91
2021/01/20 06:57:27;;;;;;;;;;;;;;;2.91;79.50;97699.34;1729801;82;25495;-90
2021/01/20 07:00:01;;;;;;;;;;;;;;;2.90;79.50;97692.95;1744131;80;23056;-91
2021/01/20 07:02:54;;;;;;;;;;;;;;;2.93;79.48;97691.06;1744998;81;26819;-90
2021/01/20 07:05:44;;;;;;;;;;;;;;;2.94;79.50;97695.33;1709821;82;24592;-90
2021/01/20 07:08:31;;;;;;;;;;;;;;;2.97;79.50;97701.23;1748981;81;20376;-90
2021/01/20 07:11:18;;;;;;;;;;;;;;;3.00;79.50;97706.26;1743647;81;24648;-90
2021/01/20 07:14:04;;;;;;;;;;;;;;;3.06;79.52;97709.80;1741740;81;22112;-91
2021/01/20 07:16:50;;;;;;;;;;;;;;;3.09;79.53;97709.66;1734103;81;26140;-91
2021/01/20 07:19:38;;;;;;;;;;;;;;;3.14;79.53;97706.37;1787324;79;24571;-88
2021/01/20 07:22:24;;;;;;;;;;;;;;;3.18;79.56;97702.70;1788310;79;20270;-88
2021/01/20 07:25:11;;;;;;;;;;;;;;;3.21;79.56;97701.27;1791439;79;24695;-87
2021/01/20 07:27:57;;;;;;;;;;;;;;;3.25;79.59;97702.32;1788080;79;22312;-88
2021/01/20 07:30:45;;;;;;;;;;;;;;;3.25;79.59;97697.60;1741352;81;26174;-88
2021/01/20 07:33:31;;;;;;;;;;;;;;;3.30;79.59;97696.91;1709130;82;24650;-88
2021/01/20 07:36:23;;;;;;;;;;;;;;;3.36;79.59;97700.00;1750925;81;20253;-89
2021/01/20 07:39:09;;;;;;;;;;;;;;;3.43;79.60;97699.69;1745838;81;24651;-89
2021/01/20 07:41:56;;;;;;;;;;;;;;;3.46;79.62;97700.34;1720635;82;22251;-88
2021/01/20 07:44:45;;;;;;;;;;;;;;;3.50;79.60;97703.59;1744301;81;26121;-88
2021/01/20 07:47:31;;;;;;;;;;;;;;;3.54;79.59;97708.55;1741879;81;25485;-88
2021/01/20 07:50:19;;;;;;;;;;;;;;;3.60;79.58;97703.02;1744139;81;20628;-88
2021/01/20 07:53:05;;;;;;;;;;;;;;;3.62;79.60;97696.02;1743293;81;24667;-89
2021/01/20 07:55:51;;;;;;;;;;;;;;;3.64;79.60;97694.20;1785214;79;22092;-89
2021/01/20 07:58:40;;;;;;;;;;;;;;;3.67;79.58;97701.78;1741154;81;26184;-90
2021/01/20 08:01:26;;;;;;;;;;;;;;;3.66;79.58;97696.69;1711985;82;24710;-89
2021/01/20 08:04:12;;;;;;;;;;;;;;;3.67;79.55;97712.13;1724982;82;20262;-89
2021/01/20 08:06:58;;;;;;;;;;;;;;;3.67;79.52;97717.77;1793806;79;24702;-88
2021/01/20 08:09:44;;;;;;;;;;;;;;;3.69;79.51;97712.90;1784939;79;22146;-89
2021/01/20 08:12:30;;;;;;;;;;;;;;;3.70;79.47;97713.28;1742620;81;26131;-89
2021/01/20 08:15:17;;;;;;;;;;;;;;;3.69;79.46;97714.19;1736628;82;24643;-88
2021/01/20 08:18:03;;;;;;;;;;;;;;;3.74;79.42;97719.95;1733018;80;20291;-88
2021/01/20 08:20:49;;;;;;;;;;;;;;;3.77;79.42;97713.30;1744209;80;24704;-89
2021/01/20 08:23:36;;;;;;;;;;;;;;;3.78;79.38;97710.26;1789860;79;22052;-88
2021/01/20 08:26:22;;;;;;;;;;;;;;;3.78;79.37;97707.22;1797638;79;26334;-88
2021/01/20 08:29:07;;;;;;;;;;;;;;;3.78;79.32;97712.39;1786569;79;24626;-88
2021/01/20 08:31:53;;;;;;;;;;;;;;;3.82;79.30;97711.75;1794957;79;20521;-88
2021/01/20 08:34:41;;;;;;;;;;;;;;;3.88;79.25;97720.94;1739374;81;24663;-88
2021/01/20 08:37:28;;;;;;;;;;;;;;;3.89;79.25;97727.80;1709253;82;22155;-88
2021/01/20 08:40:14;;;;;;;;;;;;;;;3.93;79.21;97735.79;1741994;81;26160;-88
2021/01/20 08:43:00;;;;;;;;;;;;;;;4.01;79.18;97732.31;1789860;79;24813;-88
2021/01/20 08:45:48;;;;;;;;;;;;;;;4.07;79.15;97721.16;1790293;79;20371;-89
2021/01/20 08:48:34;;;;;;;;;;;;;;;4.16;79.13;97730.16;1784730;79;25558;-88
2021/01/20 08:51:20;;;;;;;;;;;;;;;4.23;79.13;97743.16;1794725;79;22131;-89
2021/01/20 08:54:06;;;;;;;;;;;;;;;4.27;79.11;97742.05;1742003;81;26451;-89
2021/01/20 08:56:52;;;;;;;;;;;;;;;4.33;79.09;97738.29;1791240;79;24635;-88
2021/01/20 08:59:38;;;;;;;;;;;;;;;4.34;79.07;97729.15;1740376;82;20276;-89
2021/01/20 09:02:26;;;;;;;;;;;;;;;4.41;79.03;97729.19;1749555;81;24947;-88
2021/01/20 09:05:14;;;;;;;;;;;;;;;4.49;79.00;97724.84;1724719;82;22152;-88
2021/01/20 09:08:00;;;;;;;;;;;;;;;4.55;78.93;97725.34;1722199;82;26346;-88
2021/01/20 09:10:51;;;;;;;;;;;;;;;4.63;78.88;97724.45;1783609;79;24812;-89
2021/01/20 09:13:37;;;;;;;;;;;;;;;4.71;78.83;97731.77;1790566;79;20228;-89
2021/01/20 09:16:23;;;;;;;;;;;;;;;4.79;78.77;97724.86;1786239;79;24580;-89
2021/01/20 09:19:11;;;;;;;;;;;;;;;4.86;78.70;97724.40;1797187;79;23069;-88
2021/01/20 09:21:58;;;;;;;;;;;;;;;4.92;78.64;97733.58;1785850;79;26284;-88
2021/01/20 09:24:44;;;;;;;;;;;;;;;4.99;78.59;97738.78;1792521;79;24779;-89
2021/01/20 09:27:29;;;;;;;;;;;;;;;5.02;78.51;97737.30;1780640;79;20288;-89
2021/01/20 09:30:15;;;;;;;;;;;;;;;5.05;78.47;97739.27;1743168;80;24823;-88
2021/01/20 09:33:06;;;;;;;;;;;;;;;5.13;78.39;97734.91;1741873;81;22287;-89
2021/01/20 09:35:52;;;;;;;;;;;;;;;5.21;78.32;97734.47;1791099;79;26344;-88
2021/01/20 09:38:38;;;;;;;;;;;;;;;5.24;78.25;97722.14;1792960;79;24607;-89
2021/01/20 09:41:24;;;;;;;;;;;;;;;5.33;78.16;97720.31;1788861;79;20484;-89
2021/01/20 09:44:10;;;;;;;;;;;;;;;5.36;78.09;97722.70;1801199;79;24840;-88
2021/01/20 09:46:57;;;;;;;;;;;;;;;5.43;78.00;97726.61;1791989;79;22229;-89
2021/01/20 09:49:45;;;;;;;;;;;;;;;5.47;77.92;97729.84;1792293;79;26125;-89
2021/01/20 09:52:31;;;;;;;;;;;;;;;5.52;77.85;97729.56;1790754;79;24587;-89
2021/01/20 09:55:17;;;;;;;;;;;;;;;5.55;77.78;97726.80;1788300;79;20275;-89
2021/01/20 09:58:04;;;;;;;;;;;;;;;5.54;77.68;97719.93;1787161;79;37571;-89
2021/01/20 10:00:52;;;;;;;;;;;;;;;5.54;77.61;97723.36;1768305;79;22152;-89
2021/01/20 10:03:38;;;;;;;;;;;;;;;5.54;77.52;97719.47;1791627;79;26038;-89
2021/01/20 10:06:25;;;;;;;;;;;;;;;5.47;77.43;97724.19;1786053;79;24618;-89
2021/01/20 10:09:11;;;;;;;;;;;;;;;5.39;77.34;97724.30;1790181;79;20394;-89
2021/01/20 10:12:00;;;;;;;;;;;;;;;5.38;77.25;97720.86;1785606;79;24922;-89
2021/01/20 10:14:46;;;;;;;;;;;;;;;5.38;77.16;97721.33;1740194;81;22125;-89
2021/01/20 10:17:32;;;;;;;;;;;;;;;5.36;77.10;97720.11;1742138;81;27036;-89
2021/01/20 10:20:19;;;;;;;;;;;;;;;5.36;77.02;97720.11;1714159;82;24648;-89
2021/01/20 10:23:05;;;;;;;;;;;;;;;5.37;76.96;97718.35;1743540;81;20295;-89
2021/01/20 10:25:51;;;;;;;;;;;;;;;5.34;76.89;97710.31;1736977;81;24775;-89
2021/01/20 10:28:41;;;;;;;;;;;;;;;5.38;76.83;97713.08;1742478;81;22183;-89
2021/01/20 10:31:27;;;;;;;;;;;;;;;5.38;76.79;97709.65;1742443;81;26366;-89
2021/01/20 10:34:21;;;;;;;;;;;;;;;5.34;76.73;97709.47;1742381;81;24566;-89
2021/01/20 10:37:07;;;;;;;;;;;;;;;5.29;76.68;97697.24;1743158;81;20432;-89
2021/01/20 10:39:53;;;;;;;;;;;;;;;5.25;76.58;97693.14;1738773;81;24696;-89
2021/01/20 10:42:39;;;;;;;;;;;;;;;5.21;76.54;97689.08;1741194;81;22178;-89
2021/01/20 10:45:25;;;;;;;;;;;;;;;5.24;76.44;97683.23;1741668;81;27014;-89
2021/01/20 10:48:13;;;;;;;;;;;;;;;5.28;76.36;97671.77;1713381;81;24519;-89
2021/01/20 10:51:00;;;;;;;;;;;;;;;5.33;76.32;97665.00;1739751;81;20671;-88
2021/01/20 10:53:46;;;;;;;;;;;;;;;5.34;76.26;97665.38;1737498;81;24695;-88
2021/01/20 10:56:31;;;;;;;;;;;;;;;5.40;76.21;97659.31;1744283;81;22364;-89
2021/01/20 10:59:18;;;;;;;;;;;;;;;5.43;76.16;97647.93;1742267;81;26303;-89
2021/01/20 11:02:04;;;;;;;;;;;;;;;5.45;76.11;97645.59;1741394;81;24650;-89
2021/01/20 11:04:50;;;;;;;;;;;;;;;5.44;76.07;97646.55;1741269;81;20324;-89
2021/01/20 11:07:36;;;;;;;;;;;;;;;5.49;76.00;97650.15;1739330;81;25499;-89
2021/01/20 11:10:22;;;;;;;;;;;;;;;5.52;75.97;97646.52;1741618;81;22303;-89
2021/01/20 11:13:10;;;;;;;;;;;;;;;5.55;75.90;97647.64;1742109;81;26210;-89
2021/01/20 11:15:56;;;;;;;;;;;;;;;5.56;75.84;97641.06;1734668;81;24809;-89
2021/01/20 11:18:43;;;;;;;;;;;;;;;5.55;75.78;97644.58;1742498;81;20526;-89
2021/01/20 11:21:29;;;;;;;;;;;;;;;5.58;75.72;97640.95;1746881;81;24720;-89
2021/01/20 11:24:17;;;;;;;;;;;;;;;5.62;75.66;97636.77;1737250;81;22118;-88
2021/01/20 11:27:03;;;;;;;;;;;;;;;5.63;75.60;97635.00;1741310;81;26968;-89
2021/01/20 11:29:49;;;;;;;;;;;;;;;5.64;75.54;97635.38;1739481;81;24800;-89
2021/01/20 11:32:35;;;;;;;;;;;;;;;5.65;75.48;97633.16;1740426;81;20301;-88
2021/01/20 11:35:22;;;;;;;;;;;;;;;5.63;75.42;97624.16;1725794;82;24690;-88
2021/01/20 11:38:08;;;;;;;;;;;;;;;5.59;75.35;97627.05;1745294;80;22124;-88
2021/01/20 11:40:55;;;;;;;;;;;;;;;5.58;75.27;97629.27;1740554;81;26327;-89
2021/01/20 11:43:41;;;;;;;;;;;;;;;5.57;75.21;97641.41;1733409;82;24802;-89
2021/01/20 11:46:30;;;;;;;;;;;;;;;5.55;75.14;97631.61;1734014;82;20265;-88
2021/01/20 11:49:15;;;;;;;;;;;;;;;5.48;75.09;97622.53;1729842;81;24791;-89
2021/01/20 11:52:02;;;;;;;;;;;;;;;5.48;75.05;97610.85;1734655;82;22546;-89
2021/01/20 11:54:48;;;;;;;;;;;;;;;5.50;74.97;97614.20;1743342;81;26134;-89
2021/01/20 11:57:34;;;;;;;;;;;;;;;5.50;74.91;97627.63;1717769;82;24631;-89
2021/01/20 12:00:20;;;;;;;;;;;;;;;5.50;74.86;97632.36;1735769;82;20373;-89
2021/01/20 12:03:06;;;;;;;;;;;;;;;5.53;74.79;97623.53;1708960;83;24687;-89
2021/01/20 12:05:53;;;;;;;;;;;;;;;5.58;74.75;97623.61;1703017;84;22168;-89
2021/01/20 12:08:39;;;;;;;;;;;;;;;5.64;74.73;97623.70;1696877;83;26310;-89
2021/01/20 12:11:27;;;;;;;;;;;;;;;5.67;74.66;97623.52;1760685;80;25389;-90
2021/01/20 12:14:13;;;;;;;;;;;;;;;5.68;74.61;97623.41;1758243;81;20323;-89
2021/01/20 12:16:59;;;;;;;;;;;;;;;5.69;74.57;97625.08;1759480;81;25816;-89
2021/01/20 12:19:47;;;;;;;;;;;;;;;5.70;74.53;97622.85;1761024;81;21927;-89
2021/01/20 12:22:33;;;;;;;;;;;;;;;5.70;74.48;97614.23;1760971;81;26961;-90
2021/01/20 12:25:19;;;;;;;;;;;;;;;5.72;74.43;97613.22;1760357;81;24779;-89
2021/01/20 12:28:05;;;;;;;;;;;;;;;5.75;74.37;97614.77;1761946;80;20483;-90
2021/01/20 12:30:50;;;;;;;;;;;;;;;5.71;74.33;97619.80;1765729;80;24724;-89
2021/01/20 12:33:36;;;;;;;;;;;;;;;5.73;74.27;97615.31;1762566;80;22368;-89
2021/01/20 12:36:23;;;;;;;;;;;;;;;5.73;74.25;97611.42;1757656;80;26173;-89
2021/01/20 12:39:10;;;;;;;;;;;;;;;5.75;74.20;97608.28;1762812;81;24667;-90
2021/01/20 12:41:56;;;;;;;;;;;;;;;5.75;74.16;97615.60;1760511;80;20300;-89
2021/01/20 12:44:44;;;;;;;;;;;;;;;5.75;74.09;97609.11;1758035;81;24909;-90
2021/01/20 12:47:30;;;;;;;;;;;;;;;5.77;74.05;97612.92;1758469;80;22300;-89
2021/01/20 12:50:16;;;;;;;;;;;;;;;5.77;74.02;97605.97;1755088;81;26969;-90
2021/01/20 12:53:02;;;;;;;;;;;;;;;5.77;73.96;97605.97;1762121;81;24622;-89
2021/01/20 12:55:48;;;;;;;;;;;;;;;5.75;73.90;97605.68;1759777;81;20272;-89
2021/01/20 12:58:34;;;;;;;;;;;;;;;5.76;73.84;97608.19;1761729;81;24811;-90
2021/01/20 13:01:21;;;;;;;;;;;;;;;5.76;73.80;97608.66;1756235;81;23021;-89
2021/01/20 13:04:07;;;;;;;;;;;;;;;5.74;73.73;97615.23;1763516;79;26314;-89
2021/01/20 13:06:54;;;;;;;;;;;;;;;5.76;73.67;97619.03;1773640;79;25484;-90
2021/01/20 13:09:40;;;;;;;;;;;;;;;5.74;73.61;97619.12;1775226;79;20385;-89
2021/01/20 13:12:25;;;;;;;;;;;;;;;5.71;73.54;97609.41;1775112;79;25471;-89
2021/01/20 13:15:12;;;;;;;;;;;;;;;5.67;73.50;97613.14;1778878;79;21428;-89
2021/01/20 13:17:57;;;;;;;;;;;;;;;5.63;73.46;97603.86;1774884;79;25585;-89
2021/01/20 13:20:44;;;;;;;;;;;;;;;5.57;73.39;97608.97;1776479;79;24876;-89
2021/01/20 13:23:29;;;;;;;;;;;;;;;5.55;73.32;97610.84;1775679;79;20313;-89
2021/01/20 13:26:16;;;;;;;;;;;;;;;5.55;73.29;97606.12;1774727;79;25620;-90
2021/01/20 13:29:03;;;;;;;;;;;;;;;5.59;73.25;97611.02;1707632;83;22348;-90
2021/01/20 13:31:50;;;;;;;;;;;;;;;5.58;73.23;97599.42;1725438;82;27015;-89
2021/01/20 13:34:37;;;;;;;;;;;;;;;5.59;73.18;97602.39;1717479;83;24597;-89
2021/01/20 13:37:25;;;;;;;;;;;;;;;5.61;73.14;97605.73;1708014;81;20256;-90
2021/01/20 13:40:11;;;;;;;;;;;;;;;5.63;73.12;97607.75;1711820;82;24719;-89
2021/01/20 13:42:57;;;;;;;;;;;;;;;5.60;73.09;97604.06;1713678;82;22133;-89
2021/01/20 13:45:43;;;;;;;;;;;;;;;5.61;73.05;97605.73;1714709;82;27247;-90
2021/01/20 13:48:30;;;;;;;;;;;;;;;5.63;73.03;97607.75;1712127;82;24818;-89
2021/01/20 13:51:16;;;;;;;;;;;;;;;5.65;72.99;97587.27;1713685;82;20281;-89
2021/01/20 13:54:04;;;;;;;;;;;;;;;5.65;72.97;97591.16;1716400;82;24707;-89
2021/01/20 13:56:50;;;;;;;;;;;;;;;5.62;72.93;97600.92;1706311;82;22106;-89
2021/01/20 13:59:36;;;;;;;;;;;;;;;5.59;72.89;97602.39;1728266;82;27000;-89
2021/01/20 14:02:21;;;;;;;;;;;;;;;5.63;72.85;97595.61;1716244;82;24632;-89
2021/01/20 14:05:08;;;;;;;;;;;;;;;5.65;72.82;97594.22;1730589;81;20205;-90
2021/01/20 14:07:54;;;;;;;;;;;;;;;5.65;72.79;97590.33;1735012;82;24662;-89
2021/01/20 14:10:40;;;;;;;;;;;;;;;5.68;72.76;97587.06;1740423;82;22151;-89
2021/01/20 14:13:26;;;;;;;;;;;;;;;5.72;72.69;97587.26;1742815;81;26114;-89
2021/01/20 14:16:11;;;;;;;;;;;;;;;5.70;72.67;97586.52;1715513;82;24674;-89
2021/01/20 14:18:58;;;;;;;;;;;;;;;5.66;72.64;97577.27;1727391;82;20268;-90
2021/01/20 14:21:44;;;;;;;;;;;;;;;5.62;72.61;97582.26;1734966;82;24816;-89
2021/01/20 14:24:30;;;;;;;;;;;;;;;5.62;72.55;97584.85;1740893;81;22103;-89
2021/01/20 14:27:16;;;;;;;;;;;;;;;5.62;72.50;97574.97;1715554;82;26094;-89
2021/01/20 14:30:03;;;;;;;;;;;;;;;5.58;72.49;97574.77;1740338;82;24845;-90
2021/01/20 14:32:49;;;;;;;;;;;;;;;5.56;72.43;97579.24;1730910;81;20297;-89
2021/01/20 14:35:35;;;;;;;;;;;;;;;5.54;72.41;97583.23;1732151;81;25586;-89
2021/01/20 14:38:22;;;;;;;;;;;;;;;5.52;72.38;97573.86;1742053;81;22171;-88
2021/01/20 14:41:09;;;;;;;;;;;;;;;5.48;72.32;97571.47;1717782;82;26317;-89
2021/01/20 14:43:55;;;;;;;;;;;;;;;5.44;72.34;97570.00;1745297;81;25446;-89
2021/01/20 14:46:41;;;;;;;;;;;;;;;5.38;72.29;97573.44;1741448;81;20284;-89
2021/01/20 14:49:27;;;;;;;;;;;;;;;5.37;72.27;97560.93;1733480;81;24728;-89